Terminal Aerodrome Forecast
Issued by NWS Huntsville, AL

Home | Current Version | Previous Version | Text Only | Print | Product List | Glossary On
Versions: 1 2 3 4 5 6 7 8 9 10 11 12 13 14 15 16
000
FTUS44 KHUN 231136
TAFHSV
TAF
KHSV 231136Z 2312/2412 19010G15KT P6SM VCSH OVC015
      TEMPO 2312/2314 4SM SHRA OVC010
     FM231500 20017G24KT 6SM BR VCSH OVC020
      TEMPO 2318/2322 3SM -TSRA BR OVC012CB
     FM232200 22018G25KT 5SM -SHRA BR OVC020 PROB30 2322/2402 4SM
      -TSRA OVC015CB
     FM240200 21007KT 4SM BR OVC010=

USA.gov is the U.S. government's official web portal to all federal, state and local government web resources and services.